Time;durP1;ratioP1;P1;durP2;ratioP2;P2;SDS_P1;SDS_P2;PMS_P1;PMS_P2;Temp;Humidity;BMP_temperature;BMP_pressure;BME280_temperature;BME280_humidity;BME280_pressure;Samples;Min_cycle;Max_cycle;Signal;HPM_P1;HPM_P2
2022/04/30 00:00:41;;;;;;;1.83;1.47;;;18.10;51.40;;;;;;4959896;28;20284;-92
2022/04/30 00:03:09;;;;;;;1.70;1.60;;;18.10;51.40;;;;;;4960249;28;20289;-92
2022/04/30 00:05:35;;;;;;;2.27;1.40;;;18.10;51.40;;;;;;4976545;28;20193;-92
2022/04/30 00:08:03;;;;;;;1.63;1.53;;;18.10;51.50;;;;;;4957907;28;20177;-92
2022/04/30 00:10:29;;;;;;;2.67;1.50;;;18.00;51.40;;;;;;4959590;28;20216;-92
2022/04/30 00:12:55;;;;;;;1.50;1.40;;;18.00;51.40;;;;;;4958869;28;20176;-92
2022/04/30 00:15:21;;;;;;;2.03;1.47;;;18.00;51.40;;;;;;4958679;28;20185;-92
2022/04/30 00:17:47;;;;;;;1.70;1.47;;;18.00;51.40;;;;;;4959994;28;20276;-92
2022/04/30 00:20:13;;;;;;;2.40;1.57;;;18.00;51.50;;;;;;4959073;28;20182;-92
2022/04/30 00:22:39;;;;;;;1.77;1.50;;;18.00;51.40;;;;;;4960746;28;20178;-92
2022/04/30 00:25:05;;;;;;;1.70;1.60;;;18.00;51.40;;;;;;4961499;28;20420;-92
2022/04/30 00:27:34;;;;;;;1.60;1.50;;;18.00;51.40;;;;;;4977291;28;20502;-92
2022/04/30 00:30:00;;;;;;;1.57;1.47;;;18.00;51.40;;;;;;4960861;28;20177;-92
2022/04/30 00:32:26;;;;;;;1.50;1.40;;;18.00;51.40;;;;;;4960559;28;20178;-92
2022/04/30 00:34:53;;;;;;;2.03;1.60;;;17.90;51.30;;;;;;4960278;28;20193;-92
2022/04/30 00:37:19;;;;;;;1.77;1.40;;;17.90;51.30;;;;;;4960345;28;20178;-90
2022/04/30 00:39:44;;;;;;;1.60;1.50;;;17.90;51.30;;;;;;4960374;28;20193;-90
2022/04/30 00:42:11;;;;;;;2.27;1.50;;;17.90;51.30;;;;;;4961196;28;20465;-90
2022/04/30 00:44:37;;;;;;;1.73;1.43;;;17.90;51.30;;;;;;4960072;28;20182;-90
2022/04/30 00:47:03;;;;;;;1.50;1.40;;;17.80;51.20;;;;;;4960009;28;20224;-90
2022/04/30 00:49:30;;;;;;;1.83;1.70;;;17.80;51.30;;;;;;4958162;28;20239;-91
2022/04/30 00:52:00;;;;;;;1.73;1.53;;;17.80;51.20;;;;;;4959187;28;20181;-90
2022/04/30 00:54:32;;;;;;;1.83;1.67;;;17.80;51.20;;;;;;4959504;28;20193;-90
2022/04/30 00:57:03;;;;;;;2.50;1.70;;;17.80;51.20;;;;;;4959315;28;20501;-91
2022/04/30 00:59:31;;;;;;;2.73;1.43;;;17.70;51.20;;;;;;4958621;28;20268;-90
2022/04/30 01:01:59;;;;;;;1.57;1.43;;;17.80;51.20;;;;;;4958646;28;20206;-91
2022/04/30 01:04:26;;;;;;;2.30;1.63;;;17.70;51.20;;;;;;4959701;28;20189;-90
2022/04/30 01:06:57;;;;;;;1.50;1.37;;;17.70;51.20;;;;;;4960350;28;20209;-91
2022/04/30 01:09:24;;;;;;;2.03;1.57;;;17.70;51.10;;;;;;4960291;28;20185;-90
2022/04/30 01:11:55;;;;;;;1.57;1.40;;;17.70;51.10;;;;;;4959253;28;20243;-91
2022/04/30 01:14:29;;;;;;;2.23;1.70;;;17.70;51.20;;;;;;4959080;28;20502;-90
2022/04/30 01:16:57;;;;;;;2.00;1.80;;;17.60;51.10;;;;;;4959470;28;20228;-92
2022/04/30 01:19:24;;;;;;;2.00;1.60;;;17.60;51.10;;;;;;4959330;28;20182;-92
2022/04/30 01:21:58;;;;;;;2.20;1.70;;;17.60;51.10;;;;;;4960157;28;20257;-92
2022/04/30 01:24:26;;;;;;;1.57;1.47;;;17.60;51.10;;;;;;4960324;28;20243;-93
2022/04/30 01:26:53;;;;;;;2.07;1.50;;;17.60;51.10;;;;;;4960171;28;20210;-92
2022/04/30 01:29:21;;;;;;;2.47;1.70;;;17.50;51.00;;;;;;4959819;28;20296;-93
2022/04/30 01:37:25;;;;;;;2.57;1.63;;;17.50;51.00;;;;;;4976465;28;20179;-92
2022/04/30 01:40:03;;;;;;;1.97;1.53;;;17.50;51.00;;;;;;4959072;28;20179;-93
2022/04/30 01:42:31;;;;;;;2.50;1.77;;;17.50;51.00;;;;;;4958349;28;20546;-92
2022/04/30 01:44:58;;;;;;;1.40;1.30;;;17.40;51.00;;;;;;4959276;28;20180;-92
2022/04/30 01:47:25;;;;;;;1.60;1.50;;;17.40;51.00;;;;;;4959374;28;20303;-93
2022/04/30 01:49:51;;;;;;;2.03;1.53;;;17.40;51.00;;;;;;4959441;28;20174;-93
2022/04/30 01:52:18;;;;;;;2.27;1.80;;;17.40;51.00;;;;;;4960247;28;20578;-92
2022/04/30 01:54:44;;;;;;;2.20;1.70;;;17.40;51.00;;;;;;4958491;28;20182;-92
2022/04/30 01:57:10;;;;;;;2.43;1.60;;;17.40;50.90;;;;;;4958752;28;20191;-92
2022/04/30 01:59:36;;;;;;;1.70;1.60;;;17.40;50.90;;;;;;4957840;28;20176;-92
2022/04/30 02:02:03;;;;;;;2.00;1.80;;;17.30;50.90;;;;;;4959249;28;20204;-92
2022/04/30 02:04:31;;;;;;;2.50;1.43;;;17.30;51.00;;;;;;4958927;28;20171;-92
2022/04/30 02:06:59;;;;;;;2.30;1.60;;;17.30;50.90;;;;;;4958634;28;20492;-92
2022/04/30 02:09:30;;;;;;;1.50;1.40;;;17.30;50.90;;;;;;4959158;28;20420;-92
2022/04/30 02:12:01;;;;;;;2.37;1.67;;;17.30;50.90;;;;;;4958733;28;20185;-92
2022/04/30 02:14:31;;;;;;;1.67;1.53;;;17.30;50.90;;;;;;4959043;28;20185;-92
2022/04/30 02:17:01;;;;;;;2.17;1.30;;;17.30;51.00;;;;;;4959102;28;20182;-92
2022/04/30 02:20:18;;;;;;;1.83;1.40;;;17.30;51.00;;;;;;4957918;28;20557;-92
2022/04/30 02:22:18;;;;;;;2.27;1.30;;;17.30;50.90;;;;;;4974333;28;20178;-90
2022/04/30 02:24:45;;;;;;;1.50;1.40;;;17.30;50.90;;;;;;4958263;28;20537;-90
2022/04/30 02:27:12;;;;;;;1.53;1.40;;;17.30;51.00;;;;;;4957414;28;20616;-90
2022/04/30 02:29:38;;;;;;;1.67;1.40;;;17.30;50.90;;;;;;4958091;28;20191;-90
2022/04/30 02:32:05;;;;;;;1.67;1.50;;;17.30;50.90;;;;;;4961703;28;20176;-90
2022/04/30 02:34:31;;;;;;;1.97;1.40;;;17.20;50.90;;;;;;4961882;28;20187;-90
2022/04/30 02:36:57;;;;;;;1.53;1.30;;;17.20;50.90;;;;;;4961865;28;20181;-90
2022/04/30 02:39:22;;;;;;;1.97;1.30;;;17.20;50.90;;;;;;4961119;28;20241;-90
2022/04/30 02:41:48;;;;;;;1.60;1.50;;;17.20;51.00;;;;;;4961382;28;20223;-90
2022/04/30 02:44:14;;;;;;;1.50;1.40;;;17.20;50.90;;;;;;4962000;28;20187;-90
2022/04/30 02:46:40;;;;;;;1.57;1.40;;;17.20;50.90;;;;;;4961929;28;20202;-90
2022/04/30 02:49:06;;;;;;;1.50;1.40;;;17.20;51.30;;;;;;4960953;28;20178;-90
2022/04/30 02:51:32;;;;;;;1.43;1.30;;;17.10;50.90;;;;;;4961360;28;20543;-90
2022/04/30 02:53:57;;;;;;;1.50;1.20;;;17.10;50.90;;;;;;4960886;28;20228;-90
2022/04/30 02:56:27;;;;;;;1.43;1.33;;;17.10;50.90;;;;;;4960580;28;20250;-90
2022/04/30 03:01:56;;;;;;;2.40;1.30;;;17.10;50.90;;;;;;4898245;29;20181;-90
2022/04/30 03:04:22;;;;;;;1.70;1.20;;;17.10;50.90;;;;;;4884842;29;20186;-91
2022/04/30 03:06:48;;;;;;;1.80;1.40;;;17.10;51.00;;;;;;4919845;28;20689;-90
2022/04/30 03:09:14;;;;;;;1.30;1.20;;;17.10;50.90;;;;;;4977644;28;20235;-91
2022/04/30 03:11:40;;;;;;;1.10;1.00;;;17.10;51.00;;;;;;4976274;28;20189;-90
2022/04/30 03:14:06;;;;;;;2.13;1.30;;;17.10;50.90;;;;;;4960771;28;20182;-91
2022/04/30 03:22:01;;;;;;;1.37;1.27;;;17.00;50.90;;;;;;4977206;28;20249;-90
2022/04/30 03:24:29;;;;;;;1.10;1.00;;;17.00;50.90;;;;;;4960346;28;20201;-90
2022/04/30 03:26:55;;;;;;;1.30;1.20;;;17.00;50.90;;;;;;4977443;28;20206;-91
2022/04/30 03:29:22;;;;;;;1.40;1.20;;;17.00;51.00;;;;;;4960486;28;20214;-92
2022/04/30 03:31:49;;;;;;;1.33;1.00;;;17.00;50.90;;;;;;4961043;28;20239;-92
2022/04/30 03:34:15;;;;;;;1.37;1.27;;;17.00;51.00;;;;;;4960919;28;20437;-92
2022/04/30 03:36:42;;;;;;;1.30;1.20;;;16.90;51.00;;;;;;4960663;28;20185;-92
2022/04/30 03:39:09;;;;;;;1.27;1.17;;;16.90;51.00;;;;;;4960955;28;20409;-92
2022/04/30 03:41:36;;;;;;;1.77;1.37;;;16.90;51.00;;;;;;4961378;28;20180;-91
2022/04/30 03:44:02;;;;;;;1.33;1.23;;;16.90;51.00;;;;;;4960430;28;20175;-92
2022/04/30 03:46:28;;;;;;;1.60;1.50;;;16.90;51.00;;;;;;4960630;28;20239;-91
2022/04/30 03:48:56;;;;;;;1.53;1.30;;;16.90;51.00;;;;;;4960615;28;20383;-92
2022/04/30 03:51:24;;;;;;;2.20;1.30;;;16.90;51.00;;;;;;4960473;28;20172;-91
2022/04/30 03:53:51;;;;;;;1.43;1.20;;;16.90;51.00;;;;;;4959976;28;20523;-91
2022/04/30 03:56:17;;;;;;;1.30;1.20;;;16.90;50.90;;;;;;4959642;28;20206;-92
2022/04/30 03:58:44;;;;;;;1.20;1.10;;;16.90;50.90;;;;;;4960446;28;20183;-91
2022/04/30 04:01:11;;;;;;;1.30;1.20;;;16.90;51.00;;;;;;4960067;28;20247;-90
2022/04/30 04:03:37;;;;;;;1.47;1.20;;;16.90;50.90;;;;;;4975111;28;20505;-90
2022/04/30 04:06:02;;;;;;;1.43;1.30;;;16.90;50.90;;;;;;4959788;28;20403;-90
2022/04/30 04:08:28;;;;;;;1.40;1.30;;;16.90;51.00;;;;;;4974952;28;20415;-90
2022/04/30 04:10:55;;;;;;;1.37;1.27;;;16.80;50.90;;;;;;4959129;28;20217;-91
2022/04/30 04:18:54;;;;;;;1.33;1.23;;;16.80;50.90;;;;;;4975987;28;20224;-91
2022/04/30 04:21:21;;;;;;;1.27;1.10;;;16.80;50.90;;;;;;4959502;28;20569;-91
2022/04/30 04:26:31;;;;;;;1.23;1.13;;;16.80;50.90;;;;;;4976687;28;20323;-91
2022/04/30 04:28:57;;;;;;;1.17;1.07;;;16.80;50.90;;;;;;4958423;28;20213;-91
2022/04/30 04:31:22;;;;;;;1.37;1.20;;;16.70;50.80;;;;;;4959135;28;20177;-90
2022/04/30 04:33:49;;;;;;;1.77;1.20;;;16.70;50.90;;;;;;4960038;28;20179;-90
2022/04/30 04:36:16;;;;;;;1.40;1.20;;;16.70;50.90;;;;;;4960047;28;20223;-93
2022/04/30 04:38:42;;;;;;;1.30;1.20;;;16.70;50.90;;;;;;4958909;28;20563;-92
2022/04/30 04:41:08;;;;;;;1.40;1.30;;;16.70;50.90;;;;;;4959274;28;20204;-92
2022/04/30 04:43:34;;;;;;;1.23;1.13;;;16.70;50.90;;;;;;4960127;28;20448;-92
2022/04/30 04:46:02;;;;;;;1.60;1.20;;;16.70;50.90;;;;;;4959475;28;20428;-91
2022/04/30 04:48:28;;;;;;;1.40;1.30;;;16.70;50.90;;;;;;4959200;28;20178;-92
2022/04/30 04:50:54;;;;;;;1.73;1.30;;;16.60;50.90;;;;;;4959650;28;20180;-92
2022/04/30 04:53:20;;;;;;;2.03;1.10;;;16.60;50.80;;;;;;4958843;28;20279;-92
2022/04/30 04:55:46;;;;;;;1.30;1.20;;;16.60;50.80;;;;;;4960065;28;20173;-92
2022/04/30 04:58:12;;;;;;;1.60;1.30;;;16.60;50.80;;;;;;4958986;28;20175;-92
2022/04/30 05:00:38;;;;;;;1.40;1.00;;;16.60;50.80;;;;;;4959274;28;20195;-92
2022/04/30 05:03:04;;;;;;;1.87;1.20;;;16.60;50.80;;;;;;4957788;28;20563;-92
2022/04/30 05:05:30;;;;;;;1.40;1.20;;;16.60;50.80;;;;;;4975326;28;20202;-92
2022/04/30 05:07:56;;;;;;;3.40;1.20;;;16.60;50.80;;;;;;4958808;28;20684;-92
2022/04/30 05:10:21;;;;;;;1.30;1.13;;;16.60;50.70;;;;;;4958526;28;20196;-92
2022/04/30 05:12:47;;;;;;;1.40;1.30;;;16.60;50.80;;;;;;4958021;28;20178;-92
2022/04/30 05:15:13;;;;;;;1.57;1.30;;;16.60;50.80;;;;;;4957865;28;20244;-92
2022/04/30 05:17:39;;;;;;;1.20;1.03;;;16.60;50.80;;;;;;4957809;28;20267;-91
2022/04/30 05:20:06;;;;;;;1.77;1.20;;;16.60;50.70;;;;;;4958088;28;20395;-92
2022/04/30 05:22:33;;;;;;;1.57;1.10;;;16.60;50.60;;;;;;4957397;28;20569;-91
2022/04/30 05:24:58;;;;;;;1.30;1.20;;;16.60;50.60;;;;;;4973907;28;20197;-92
2022/04/30 05:27:24;;;;;;;1.20;1.10;;;16.60;50.50;;;;;;4957928;28;20215;-92
2022/04/30 05:29:50;;;;;;;1.80;1.30;;;16.70;50.60;;;;;;4956713;28;20177;-92
2022/04/30 05:32:16;;;;;;;1.57;1.40;;;16.70;50.50;;;;;;4958036;28;20183;-92
2022/04/30 05:34:42;;;;;;;1.20;1.10;;;16.70;50.50;;;;;;4958515;28;20197;-92
2022/04/30 05:37:08;;;;;;;1.83;1.10;;;16.70;50.40;;;;;;4957465;28;20187;-92
2022/04/30 05:39:33;;;;;;;1.83;1.30;;;16.70;50.30;;;;;;4958269;28;20196;-90
2022/04/30 05:41:59;;;;;;;1.10;1.00;;;16.70;50.70;;;;;;4957668;28;20240;-91
2022/04/30 05:44:25;;;;;;;1.30;1.17;;;16.70;50.20;;;;;;4957855;28;20192;-92
2022/04/30 05:46:51;;;;;;;1.77;1.17;;;16.80;50.20;;;;;;4956896;28;20238;-92
2022/04/30 05:49:16;;;;;;;1.20;1.10;;;16.80;50.20;;;;;;4956689;28;20203;-92
2022/04/30 05:51:42;;;;;;;1.10;0.90;;;16.80;50.10;;;;;;4956113;28;20291;-90
2022/04/30 05:54:08;;;;;;;1.10;1.00;;;16.80;50.20;;;;;;4956444;28;20172;-91
2022/04/30 05:56:34;;;;;;;1.20;1.10;;;16.90;50.20;;;;;;4956613;28;20182;-90
2022/04/30 05:59:00;;;;;;;1.20;1.10;;;16.90;50.30;;;;;;4970746;28;20269;-90
2022/04/30 06:01:26;;;;;;;1.40;1.20;;;16.90;50.50;;;;;;4970724;28;20586;-91
2022/04/30 06:03:53;;;;;;;3.73;1.10;;;16.90;50.60;;;;;;4954013;28;20182;-91
2022/04/30 06:06:20;;;;;;;2.37;1.30;;;16.80;50.60;;;;;;4958542;28;20218;-91
2022/04/30 06:08:47;;;;;;;2.63;1.13;;;16.80;50.70;;;;;;4960871;28;20182;-90
2022/04/30 06:11:13;;;;;;;2.90;1.60;;;16.80;50.70;;;;;;4960837;28;20266;-90
2022/04/30 06:13:39;;;;;;;2.40;1.30;;;16.80;50.80;;;;;;4962406;28;20347;-90
2022/04/30 06:16:05;;;;;;;1.13;0.90;;;16.70;50.80;;;;;;4962658;28;20252;-90
2022/04/30 06:18:30;;;;;;;1.27;1.17;;;16.80;50.90;;;;;;4961764;28;20177;-90
2022/04/30 06:20:56;;;;;;;2.37;1.30;;;16.80;51.00;;;;;;4961561;28;20443;-90
2022/04/30 06:23:22;;;;;;;3.13;1.40;;;16.80;51.00;;;;;;4961150;28;20181;-90
2022/04/30 06:25:48;;;;;;;4.07;1.37;;;16.80;51.10;;;;;;4960600;28;20192;-89
2022/04/30 06:28:15;;;;;;;2.93;1.20;;;16.80;51.10;;;;;;4960286;28;20478;-90
2022/04/30 06:30:42;;;;;;;3.07;1.20;;;16.80;51.10;;;;;;4959406;28;20387;-91
2022/04/30 06:33:08;;;;;;;5.00;1.20;;;16.80;51.10;;;;;;4978126;28;20237;-90
2022/04/30 06:35:36;;;;;;;1.60;1.10;;;16.80;51.20;;;;;;4961305;28;20443;-90
2022/04/30 06:38:02;;;;;;;1.73;1.30;;;16.90;51.20;;;;;;4960700;28;20257;-91
2022/04/30 06:40:28;;;;;;;2.53;1.30;;;16.90;51.30;;;;;;4961142;28;20274;-90
2022/04/30 06:42:54;;;;;;;2.40;1.20;;;16.90;51.20;;;;;;4960040;28;20189;-89
2022/04/30 06:45:21;;;;;;;3.70;1.40;;;16.90;51.30;;;;;;4944446;28;20566;-90
2022/04/30 06:47:46;;;;;;;2.03;1.33;;;16.80;51.30;;;;;;4959369;28;20214;-90
2022/04/30 06:50:12;;;;;;;2.43;1.50;;;16.80;51.20;;;;;;4960165;28;20250;-90
2022/04/30 06:58:07;;;;;;;4.00;1.60;;;16.90;51.20;;;;;;4978339;28;20190;-91
2022/04/30 07:03:22;;;;;;;2.57;1.37;;;17.20;50.80;;;;;;4977057;28;20221;-91
2022/04/30 07:05:49;;;;;;;2.80;1.40;;;17.20;50.70;;;;;;4961187;28;20183;-92
2022/04/30 07:08:17;;;;;;;3.00;1.50;;;17.10;50.80;;;;;;4959801;28;20185;-91
2022/04/30 07:10:43;;;;;;;1.70;1.10;;;17.10;50.80;;;;;;4958767;28;20176;-91
2022/04/30 07:13:08;;;;;;;2.40;1.30;;;17.00;50.80;;;;;;4959802;28;20237;-91
2022/04/30 07:15:34;;;;;;;2.77;1.60;;;17.00;50.80;;;;;;4959128;28;20508;-91
2022/04/30 07:18:00;;;;;;;3.23;1.27;;;17.10;50.90;;;;;;4957235;28;20340;-92
2022/04/30 07:20:25;;;;;;;1.47;1.37;;;17.10;50.90;;;;;;4974668;28;20202;-91
2022/04/30 07:22:52;;;;;;;1.67;1.50;;;17.10;50.70;;;;;;4975499;28;20446;-91
2022/04/30 07:25:18;;;;;;;1.97;1.43;;;17.20;50.70;;;;;;4957426;28;20436;-92
2022/04/30 07:27:44;;;;;;;3.07;1.60;;;17.20;50.60;;;;;;4974408;28;20211;-92
2022/04/30 07:30:10;;;;;;;1.93;1.40;;;17.20;50.60;;;;;;4959308;28;20182;-90
2022/04/30 07:32:39;;;;;;;1.53;1.40;;;17.20;50.30;;;;;;4958027;28;20376;-90
2022/04/30 07:35:06;;;;;;;1.80;1.50;;;17.20;50.30;;;;;;4958256;28;20193;-91
2022/04/30 07:37:31;;;;;;;1.93;1.50;;;17.20;50.20;;;;;;4958457;28;20318;-90
2022/04/30 07:39:57;;;;;;;2.00;1.40;;;17.20;50.30;;;;;;4958781;28;20277;-89
2022/04/30 07:42:22;;;;;;;3.73;1.67;;;17.40;50.20;;;;;;4957757;28;20186;-90
2022/04/30 07:44:48;;;;;;;3.67;1.70;;;17.90;49.50;;;;;;4973176;28;20189;-90
2022/04/30 07:47:14;;;;;;;3.13;1.50;;;18.30;48.90;;;;;;4957790;28;20214;-89
2022/04/30 07:49:41;;;;;;;2.53;1.60;;;18.20;48.90;;;;;;4958224;28;20242;-90
2022/04/30 07:52:07;;;;;;;4.77;1.90;;;18.10;49.20;;;;;;4957744;28;20214;-90
2022/04/30 07:54:33;;;;;;;2.53;1.40;;;18.60;48.80;;;;;;4957475;28;20576;-90
2022/04/30 07:56:59;;;;;;;3.20;1.63;;;19.00;48.20;;;;;;4956650;28;20192;-90
2022/04/30 07:59:25;;;;;;;3.83;1.80;;;19.30;47.60;;;;;;4957901;28;20183;-90
2022/04/30 08:01:51;;;;;;;2.00;1.60;;;19.50;47.30;;;;;;4958165;28;20245;-91
2022/04/30 08:04:17;;;;;;;3.00;1.80;;;19.70;46.90;;;;;;4956998;28;20226;-92
2022/04/30 08:06:43;;;;;;;2.43;1.80;;;19.80;46.60;;;;;;4957321;28;20293;-92
2022/04/30 08:09:09;;;;;;;2.93;1.73;;;20.00;46.40;;;;;;4958197;28;20171;-92
2022/04/30 08:11:35;;;;;;;2.40;1.60;;;20.10;46.20;;;;;;4973731;28;20210;-91
2022/04/30 08:14:00;;;;;;;2.20;1.50;;;20.20;45.90;;;;;;4957098;28;20175;-91
2022/04/30 08:16:28;;;;;;;2.23;1.60;;;20.30;45.70;;;;;;4962629;28;20185;-91
2022/04/30 08:18:58;;;;;;;3.57;1.90;;;20.40;45.50;;;;;;4959905;28;20242;-92
2022/04/30 08:21:25;;;;;;;2.77;1.60;;;20.50;45.40;;;;;;4956268;28;20261;-91
2022/04/30 08:23:50;;;;;;;1.83;1.60;;;20.60;45.40;;;;;;4954513;28;20830;-91
2022/04/30 08:26:17;;;;;;;2.67;2.00;;;20.30;45.60;;;;;;4953714;28;20243;-91
2022/04/30 08:28:43;;;;;;;2.03;1.63;;;20.50;45.50;;;;;;4956312;28;20183;-92
2022/04/30 08:31:09;;;;;;;2.30;1.90;;;20.70;45.30;;;;;;4955355;28;20240;-91
2022/04/30 08:33:34;;;;;;;2.73;2.00;;;20.90;45.00;;;;;;4956074;28;20182;-92
2022/04/30 08:36:00;;;;;;;3.07;1.97;;;21.00;44.80;;;;;;4955738;28;20202;-90
2022/04/30 08:38:26;;;;;;;2.47;1.87;;;21.10;44.60;;;;;;4955227;28;20205;-90
2022/04/30 08:40:52;;;;;;;2.40;1.97;;;21.20;44.40;;;;;;4954184;28;20197;-90
2022/04/30 08:43:20;;;;;;;2.33;1.93;;;21.30;44.40;;;;;;4956186;28;20553;-91
2022/04/30 08:45:46;;;;;;;3.00;2.07;;;21.40;44.20;;;;;;4956590;28;20808;-91
2022/04/30 08:48:14;;;;;;;2.47;2.00;;;21.50;44.00;;;;;;4956582;28;20258;-90
2022/04/30 08:50:41;;;;;;;3.60;2.13;;;21.60;43.90;;;;;;4956011;28;20245;-90
2022/04/30 08:53:08;;;;;;;2.03;1.80;;;21.10;44.00;;;;;;4972544;28;20197;-90
2022/04/30 08:55:34;;;;;;;2.60;2.10;;;20.60;44.70;;;;;;4955860;28;20289;-90
2022/04/30 08:58:00;;;;;;;3.20;2.13;;;20.30;45.00;;;;;;4954058;28;20178;-90
2022/04/30 09:00:27;;;;;;;2.80;2.10;;;20.30;45.40;;;;;;4971095;28;20565;-90
2022/04/30 09:02:58;;;;;;;2.87;2.30;;;20.60;45.00;;;;;;4955637;28;20175;-90
2022/04/30 09:05:35;;;;;;;3.13;2.30;;;20.30;45.30;;;;;;4971351;28;20190;-90
2022/04/30 09:08:01;;;;;;;3.30;2.20;;;19.90;45.70;;;;;;4956462;28;20452;-90
2022/04/30 09:10:32;;;;;;;4.30;2.43;;;19.60;46.10;;;;;;4954018;28;20174;-90
2022/04/30 09:13:10;;;;;;;2.73;2.10;;;19.50;46.30;;;;;;4972964;28;20256;-91
2022/04/30 09:15:38;;;;;;;2.90;2.10;;;19.60;46.30;;;;;;4955815;28;20436;-90
2022/04/30 09:18:05;;;;;;;2.17;1.97;;;19.50;46.40;;;;;;4953750;28;20460;-91
2022/04/30 09:20:51;;;;;;;2.53;2.13;;;20.30;45.90;;;;;;4955064;28;20273;-91
2022/04/30 09:23:28;;;;;;;4.07;2.27;;;21.00;45.10;;;;;;4954956;28;20194;-91
2022/04/30 09:25:57;;;;;;;2.20;1.90;;;21.30;44.60;;;;;;4955546;28;20455;-90
2022/04/30 09:28:29;;;;;;;2.73;1.90;;;21.70;44.20;;;;;;4954702;28;20431;-90
2022/04/30 09:31:13;;;;;;;2.97;2.00;;;21.40;44.20;;;;;;4971060;28;20456;-90
2022/04/30 09:37:41;;;;;;;2.13;1.80;;;21.30;44.60;;;;;;4954562;28;20166;-90
2022/04/30 09:39:33;;;;;;;2.23;1.93;;;20.80;45.00;;;;;;4970984;28;20190;-91
2022/04/30 09:42:03;;;;;;;2.30;1.60;;;20.40;45.20;;;;;;4969501;28;20222;-90
2022/04/30 09:44:29;;;;;;;2.07;1.83;;;20.20;45.70;;;;;;4970217;28;20175;-90
2022/04/30 09:46:56;;;;;;;2.57;1.90;;;20.00;46.00;;;;;;4954599;28;20218;-91
2022/04/30 09:54:51;;;;;;;2.13;1.77;;;20.00;46.20;;;;;;4970076;28;20170;-93
2022/04/30 09:57:18;;;;;;;3.50;2.33;;;19.90;46.20;;;;;;4953368;28;20268;-92
2022/04/30 09:59:47;;;;;;;2.50;2.27;;;19.80;46.30;;;;;;4952641;28;20179;-91
2022/04/30 10:02:16;;;;;;;3.30;1.80;;;19.80;46.50;;;;;;4952082;28;20640;-91
2022/04/30 10:04:44;;;;;;;2.70;1.90;;;19.80;46.60;;;;;;4952168;28;20239;-91
2022/04/30 10:07:12;;;;;;;2.33;1.90;;;19.70;46.60;;;;;;4958993;28;20241;-91
2022/04/30 10:09:42;;;;;;;2.00;1.80;;;19.70;46.70;;;;;;4959574;28;20658;-91
2022/04/30 10:12:31;;;;;;;2.97;1.90;;;19.70;46.80;;;;;;4951967;28;20439;-91
2022/04/30 10:15:11;;;;;;;2.93;1.80;;;19.60;46.90;;;;;;4954168;28;20178;-91
2022/04/30 10:17:41;;;;;;;2.63;1.80;;;19.60;47.00;;;;;;4952080;28;20236;-90
2022/04/30 10:20:51;;;;;;;2.70;1.60;;;19.60;47.10;;;;;;4952110;28;20205;-90
2022/04/30 10:22:59;;;;;;;2.17;1.73;;;19.60;47.20;;;;;;4961518;28;20183;-90
2022/04/30 10:25:37;;;;;;;2.70;2.00;;;19.50;47.20;;;;;;4951981;28;20264;-90
2022/04/30 10:28:18;;;;;;;2.00;1.70;;;19.60;47.40;;;;;;4970427;28;20736;-90
2022/04/30 10:30:46;;;;;;;1.70;1.60;;;19.50;47.40;;;;;;4950689;28;20176;-90
2022/04/30 10:33:12;;;;;;;3.63;2.07;;;19.50;47.40;;;;;;4953275;28;20486;-90
2022/04/30 10:35:45;;;;;;;2.23;1.50;;;19.50;47.50;;;;;;4953309;28;20197;-90
2022/04/30 10:38:21;;;;;;;2.27;1.60;;;19.50;47.50;;;;;;4952625;28;20177;-90
2022/04/30 10:40:48;;;;;;;2.63;1.73;;;19.50;47.50;;;;;;4952979;28;20180;-91
2022/04/30 10:43:14;;;;;;;2.47;2.00;;;19.50;47.60;;;;;;4969384;28;20261;-90
2022/04/30 10:45:40;;;;;;;1.70;1.60;;;19.50;47.60;;;;;;4952807;28;20169;-90
2022/04/30 10:48:06;;;;;;;1.90;1.60;;;19.50;47.60;;;;;;4969053;28;20218;-91
2022/04/30 10:50:31;;;;;;;2.30;1.70;;;19.50;47.60;;;;;;4952360;28;20181;-90
2022/04/30 10:53:00;;;;;;;2.17;1.60;;;19.60;47.60;;;;;;4954937;28;20172;-90
2022/04/30 10:55:27;;;;;;;2.20;1.80;;;19.60;47.50;;;;;;4972114;28;20173;-91
2022/04/30 10:57:53;;;;;;;4.20;1.97;;;19.70;47.50;;;;;;4972438;28;20179;-91
2022/04/30 11:00:22;;;;;;;3.67;2.00;;;19.70;47.60;;;;;;4972216;28;20176;-90
2022/04/30 11:02:49;;;;;;;4.13;2.00;;;19.70;47.60;;;;;;4955473;28;20642;-90
2022/04/30 11:05:22;;;;;;;3.37;1.90;;;19.60;47.60;;;;;;4955742;28;20475;-90
2022/04/30 11:07:49;;;;;;;1.83;1.67;;;19.60;47.60;;;;;;4972863;28;20234;-90
2022/04/30 11:10:16;;;;;;;2.27;1.73;;;19.60;47.70;;;;;;4956254;28;20583;-89
2022/04/30 11:12:41;;;;;;;2.03;1.77;;;19.70;47.70;;;;;;4956614;28;20175;-90
2022/04/30 11:15:09;;;;;;;2.40;1.53;;;19.70;47.80;;;;;;4955923;28;20182;-90
2022/04/30 11:17:46;;;;;;;6.57;1.97;;;19.70;47.80;;;;;;4954706;28;20512;-90
2022/04/30 11:20:23;;;;;;;2.60;1.80;;;19.70;47.80;;;;;;4956578;28;20277;-90
2022/04/30 11:22:53;;;;;;;4.83;2.00;;;19.70;47.80;;;;;;4955329;28;20182;-90
2022/04/30 11:25:19;;;;;;;3.20;1.80;;;19.70;47.80;;;;;;4955461;28;20461;-90
2022/04/30 11:27:45;;;;;;;2.87;1.80;;;19.70;47.80;;;;;;4954430;28;20558;-90
2022/04/30 11:30:11;;;;;;;2.43;2.00;;;19.70;47.80;;;;;;4954512;28;20223;-91
2022/04/30 11:32:37;;;;;;;2.50;1.90;;;19.70;47.80;;;;;;4954282;28;20249;-90
2022/04/30 11:35:04;;;;;;;2.03;1.77;;;19.70;47.70;;;;;;4955322;28;20195;-91
2022/04/30 11:37:38;;;;;;;3.87;1.60;;;19.80;47.70;;;;;;4954310;28;20728;-91
2022/04/30 11:40:04;;;;;;;3.07;1.60;;;19.80;47.70;;;;;;4954983;28;20179;-90
2022/04/30 11:42:30;;;;;;;2.27;1.90;;;19.80;47.60;;;;;;4956539;28;20258;-91
2022/04/30 11:44:56;;;;;;;2.00;1.63;;;19.80;47.50;;;;;;4954574;28;20186;-91
2022/04/30 11:47:22;;;;;;;3.03;1.87;;;19.80;47.70;;;;;;4953403;28;20206;-90
2022/04/30 11:49:48;;;;;;;1.60;1.50;;;19.70;47.50;;;;;;4953889;28;20236;-91
2022/04/30 11:52:17;;;;;;;3.53;1.70;;;19.70;47.60;;;;;;4952935;28;20333;-91
2022/04/30 11:54:43;;;;;;;3.03;1.40;;;19.70;47.40;;;;;;4955156;28;20449;-91
2022/04/30 11:57:09;;;;;;;3.03;1.87;;;19.70;47.50;;;;;;4954385;28;20386;-90
2022/04/30 11:59:40;;;;;;;1.60;1.50;;;19.70;47.50;;;;;;4958536;28;20182;-91
2022/04/30 12:02:09;;;;;;;1.93;1.50;;;19.80;47.50;;;;;;4959344;28;20198;-91
2022/04/30 12:04:41;;;;;;;2.27;1.60;;;19.80;47.60;;;;;;4960388;28;20174;-90
2022/04/30 12:07:07;;;;;;;2.70;1.70;;;19.80;47.60;;;;;;4959659;28;20279;-91
2022/04/30 12:09:37;;;;;;;1.60;1.50;;;19.80;47.60;;;;;;4953431;28;20183;-91
2022/04/30 12:12:17;;;;;;;2.63;1.50;;;19.80;47.60;;;;;;4953394;28;20171;-91
2022/04/30 12:14:48;;;;;;;1.73;1.60;;;19.80;48.00;;;;;;4972179;28;20236;-91
2022/04/30 12:17:16;;;;;;;2.23;1.43;;;19.80;47.70;;;;;;4955010;28;20276;-90
2022/04/30 12:25:19;;;;;;;1.60;1.43;;;19.80;47.70;;;;;;4971205;28;20177;-90
2022/04/30 12:27:59;;;;;;;2.33;1.80;;;19.80;47.70;;;;;;4952805;28;20210;-91
2022/04/30 12:30:26;;;;;;;2.60;1.60;;;19.80;47.70;;;;;;4954005;28;20321;-90
2022/04/30 12:32:55;;;;;;;3.90;1.67;;;19.70;47.60;;;;;;4953449;28;20171;-90
2022/04/30 12:35:26;;;;;;;2.10;1.60;;;19.80;47.70;;;;;;4953886;28;20297;-90
2022/04/30 12:38:06;;;;;;;1.40;1.30;;;19.80;47.70;;;;;;4953987;28;20179;-90
2022/04/30 12:40:33;;;;;;;1.80;1.70;;;19.80;47.70;;;;;;4953984;28;20281;-90
2022/04/30 12:43:00;;;;;;;1.77;1.67;;;19.80;47.70;;;;;;4951978;28;20233;-90
2022/04/30 12:45:26;;;;;;;3.43;1.57;;;19.80;47.70;;;;;;4952264;28;20175;-90
2022/04/30 12:47:55;;;;;;;3.53;1.77;;;19.80;47.80;;;;;;4956544;28;20203;-91
2022/04/30 12:50:21;;;;;;;1.67;1.57;;;19.80;47.80;;;;;;4959456;28;20186;-90
2022/04/30 12:52:47;;;;;;;1.53;1.43;;;19.80;47.80;;;;;;4956870;29;20190;-91
2022/04/30 12:55:14;;;;;;;1.60;1.50;;;19.80;47.80;;;;;;4941060;29;20493;-90
2022/04/30 12:57:42;;;;;;;1.43;1.33;;;19.80;47.90;;;;;;4956667;29;20183;-90
2022/04/30 13:00:10;;;;;;;1.80;1.40;;;19.80;48.00;;;;;;4955474;29;20797;-90
2022/04/30 13:02:38;;;;;;;2.10;1.53;;;19.80;48.00;;;;;;4963625;28;20193;-90
2022/04/30 13:05:09;;;;;;;2.43;1.20;;;19.80;48.00;;;;;;4958095;28;20678;-91
2022/04/30 13:07:38;;;;;;;2.70;1.53;;;19.80;48.10;;;;;;4959856;28;20210;-90
2022/04/30 13:15:35;;;;;;;1.63;1.40;;;19.80;48.10;;;;;;4976215;28;20180;-91
2022/04/30 13:18:02;;;;;;;1.40;1.27;;;19.80;48.00;;;;;;4959243;28;20175;-91
2022/04/30 13:20:29;;;;;;;1.57;1.47;;;19.80;48.00;;;;;;4959899;28;20455;-91
2022/04/30 13:22:56;;;;;;;3.00;1.53;;;19.90;48.00;;;;;;4959144;28;20273;-91
2022/04/30 13:25:26;;;;;;;1.73;1.57;;;19.90;48.00;;;;;;4955357;29;20188;-91
2022/04/30 13:27:52;;;;;;;1.20;1.10;;;19.80;48.00;;;;;;4956446;29;20583;-91
2022/04/30 13:30:18;;;;;;;1.40;1.30;;;19.90;48.00;;;;;;4955900;29;20182;-92
2022/04/30 13:32:48;;;;;;;2.17;1.30;;;19.90;48.10;;;;;;4937358;29;20479;-91
2022/04/30 13:35:15;;;;;;;1.57;1.40;;;19.90;48.10;;;;;;4948359;29;20293;-91
2022/04/30 13:37:41;;;;;;;2.00;1.40;;;19.90;48.10;;;;;;4950234;29;20299;-92
2022/04/30 13:40:11;;;;;;;2.07;1.60;;;19.90;48.00;;;;;;4948823;29;20464;-92